Эфиопский Boeing 737-800 почти добежал до озера Виктория

Boeing 737-800 авиакомпании Ethiopian Airlines (ET) перебежал полосу при посадке в аэропорту Энтеббе и остановился в нескольких метрах от берега озера Виктория.

Инцидент произошёл ночью 3 января — в 00:38 по местному времени; на борту было 133 пассажира и 6 членов экипажа.

Выполнявший рейс ET338 из Аддис-Абебы (ADD) в Энтеббе (EBB) самолёт приземлился в аэропорту назначения на ВПП 17 (длина 3 658 метров, асфальтовое покрытие), но перебежал её и остановился в мягком грунте примерно в 125 метрах после её торца. Погода при этом была почти идеальной: минимальный ветер, слабая облачность и отличная видимость.

Пассажиры и экипаж покинули салон через выходы в хвостовой части с помощью трапа, без применения аварийных процедур; пострадавших нет. Самолёт практически не получил повреждений.

Взлётно-посадочная полоса аэропорта была закрыта в течение примерно 10 часов, пока авиалайнер вытягивали обратно и буксировали на стоянку.

По неподтверждённым сведениям, самолёт приземлялся с максимальной посадочной массой, так как его баки были заполнены топливом для обратного рейса, чтобы не заправляться в Уганде. При этом у двигателя №1 (левого; модель CFM56-7B26) был отключён из-за неисправности реверс тяги.

Пострадавший самолёт: Boeing 737-8Q8WL под регистрационным номером ET-ATV; принадлежит лизинговой компании AerCap. На момент аварии возраст 12,5 лет, Ethiopian — второй пользователь после Air China (CA). При передаче от первого эксплуатанта в августе 2016 года крыло было модернизировано установкой законцовок Sharklets.

Данные METAR:

HUEN 022230Z 36003KT 9999 FEW019 FEW021CB 19/18 Q1017=
HUEN 022200Z 36002KT 9999 FEW019 FEW021CB 20/18 Q1017=
HUEN 022130Z 00000KT 9999 FEW019 FEW021CB 20/18 Q1016=
HUEN 022100Z 00000KT 9999 FEW019 FEW021CB 20/18 Q1017=

Читайте также  Jasmin Airways запускается с третьей попытки

Ещё на эту тему

Boeing 737 MAX, самый опасный самолёт десятилетия
Boeing 737 MAX 8 авиакомпании Ethiopian Airlines (ET) разбился вскоре после вылета из Аддис-Абебы.

На борту было 149 пассажиров и 8 членов экипажа. Выживших нет.
Подробности
10 марта самолёт под регистрационным номером ET-AVJ в 08:37 по местному…

Спецназ Бангладеш застрелил угонщика с игрушечным пистолетом
Рейс BG147 авиакомпании Biman Bangladesh Airlines был угнан 26-летним мужчиной во время выполнения первого сегмента сложного перелёта из Дакки (DAC) в Читтагонг (CGP) и Дубай (DXB).

Инцидент произошёл 24 февраля. На борту находились 134 пассажира …

Boeing 737-800 не улетел из Коста-Рики из-за отказа двигателя
Boeing 737-800 авиакомпании United Airlines (UA) вернулся в аэропорт вылета из-за отключения первого двигателя.

Инцидент произошёл 1 февраля, на борту было 128 человек.

Самолёт под регистрационным номером N27205 выполнял рейс UA1079 из Сан-Хосе…

Boeing 737-800 Аэрофлота съехал на грунт в Шереметьево
Boeing 737-8LJWL авиакомпании Аэрофлот (SU) соскользнул со взлётно-посадочной полосы аэропорта Шереметьево при выходе с неё после приземления.

Инцидент произошёл в 17:49 по московскому времени 21 января. На борту было 78 пассажиров и 7 членов экип…

Boeing 737-800 самого большого лоукостера Америки съехал на снег в Неваде
Boeing 737-8H4WL авиакомпании Southwest Airlines (WN) соскользнул со взлётно-посадочной полосы аэропорта Омахи.

Инцидент произошёл 18 января в 14:03 по местному времени. На борту находились 150 пассажиров и 6 членов экипажа; пострадавших нет.

С…

У индийского Boeing 737-800 отказала гидравлика
Boeing 737-800 авиакомпании Air India Express, вылетевший из Мумбаи (BOM) в Дубай (DXB), прервал полёт из-за отказа гидравлики.

6 января во время выполнения рейса IX247 после взлёта с ВПП 32 экипаж остановил набор высоты на FL270 (8 230 метров) из…

Читайте также  Air Canada меняет Airbus на Boeing

Турецкий Boeing 737-800 выскользнул с ВПП во Львове
Boeing 737-8F2WL авиакомпании Turkish Airlines соскользнул со взлётно-посадочной полосы аэропорта Львова при подготовке ко взлёту.

Инцидент произошёл в 10:25 по местному времени 6-го января. На борту было 59 пассажиров и 6 членов экипажа.

Выпол…

Мексиканский Boeing 737-800 стёр шасси об асфальт
Boeing 737-800 авиакомпании Aeroméxico (AM) при посадке после нормального полёта стёр основные шасси.

Инцидент произошёл 3 января в 10:54 по местному времени; на борту было 145 пассажиров и 6 членов экипажа.

Выполнявший рейс AM120 из Мехико (ME…

Ethiopian сделает Гане перевозчика
Ethiopian Airlines (ET) выбрана правительством Ганы партнёром в создании нового национального перевозчика. Меморандум о взаимопонимании был подписан 4 декабря в Аддис-Абебе в штаб-квартире эфиопской авиакомпании. Финальное соглашение с обязывающими у…

Ethiopian откроет всю Африку из Домодедово
Ethiopian Airlines (ET) пересмотрела свои планы по открытию рейсов в Москву и Стамбул: ранее она собиралась начать полёты 5 декабря из Аддис-Абебы в Москву с промежуточной посадкой в Стамбуле.

Но компания переоценила спрос по обоим направлениям и …

Первый в Африке по GEnx
Ethiopian Maintenance & Engineering Services, подразделение национального авиационного холдинга Эфиопии Ethiopian Airlines Group, станет первым африканским оператором техобслуживания и ремонта двигателей General Electric GEnx — устанавливаемых, в…

Boeing 737-800 утонул в Микронезии
Boeing 737-8BKWL авиакомпании Air Niugini (PX) в пятницу, 28 сентября, совершил посадку на воду при попытке приземления в международном аэропорту Чуук (TKK) города Вено в Микронезии. Самолёт оказался в лагуне примерно в 145 метрах от берега.

Все 3…

Related Posts